createdAt,value
2019-05-19T00:00:31.680Z,1000.5
2019-05-19T00:01:35.120Z,1000.5
2019-05-19T00:02:41.173Z,1000.6
2019-05-19T00:03:45.138Z,1000.6
2019-05-19T00:04:47.641Z,1000.5
2019-05-19T00:05:49.817Z,1000.6
2019-05-19T00:06:52.438Z,1000.6
2019-05-19T00:07:55.766Z,1000.5
2019-05-19T00:08:58.743Z,1000.5
2019-05-19T00:10:01.769Z,1000.6
2019-05-19T00:11:05.536Z,1000.5
2019-05-19T00:12:08.509Z,1000.5
2019-05-19T00:13:10.733Z,1000.6
2019-05-19T00:14:14.824Z,1000.6
2019-05-19T00:15:17.153Z,1000.6
2019-05-19T00:16:19.626Z,1000.6
2019-05-19T00:17:21.883Z,1000.6
2019-05-19T00:18:24.124Z,1000.6
2019-05-19T00:19:27.709Z,1000.6
2019-05-19T00:20:30.647Z,1000.6
2019-05-19T00:21:34.739Z,1000.6
2019-05-19T00:22:37.030Z,1000.6
2019-05-19T00:23:39.250Z,1000.6
2019-05-19T00:24:42.010Z,1000.6
2019-05-19T00:25:44.913Z,1000.6
2019-05-19T00:26:46.998Z,1000.6
2019-05-19T00:27:49.198Z,1000.7
2019-05-19T00:28:51.317Z,1000.6
2019-05-19T00:29:53.460Z,1000.6
2019-05-19T00:30:55.578Z,1000.7
2019-05-19T00:31:57.648Z,1000.7
2019-05-19T00:32:59.821Z,1000.6
2019-05-19T00:34:01.976Z,1000.7
2019-05-19T00:35:05.017Z,1000.7
2019-05-19T00:36:07.124Z,1000.7
2019-05-19T00:37:10.202Z,1000.6
2019-05-19T00:38:13.460Z,1000.6
2019-05-19T00:39:16.876Z,1000.6
2019-05-19T00:40:19.209Z,1000.6
2019-05-19T00:41:21.460Z,1000.6
2019-05-19T00:42:24.860Z,1000.6
2019-05-19T00:43:26.972Z,1000.6
2019-05-19T00:44:29.291Z,1000.5
2019-05-19T00:45:31.400Z,1000.6
2019-05-19T00:46:33.495Z,1000.6
2019-05-19T00:47:36.384Z,1000.6
2019-05-19T00:48:39.562Z,1000.6
2019-05-19T00:49:42.410Z,1000.6
2019-05-19T00:50:44.612Z,1000.6
2019-05-19T00:51:46.694Z,1000.6
2019-05-19T00:52:49.064Z,1000.5
2019-05-19T00:53:52.020Z,1000.6
2019-05-19T00:54:54.451Z,1000.6
2019-05-19T00:55:57.511Z,1000.6
2019-05-19T00:56:59.992Z,1000.6
2019-05-19T00:58:02.258Z,1000.6
2019-05-19T00:59:04.776Z,1000.6
2019-05-19T01:00:07.281Z,1000.6
2019-05-19T01:01:09.445Z,1000.6
2019-05-19T01:02:11.723Z,1000.6
2019-05-19T01:03:15.081Z,1000.6
2019-05-19T01:04:18.035Z,1000.6
2019-05-19T01:05:21.471Z,1000.7
2019-05-19T01:06:24.116Z,1000.7
2019-05-19T01:07:27.248Z,1000.7
2019-05-19T01:08:29.815Z,1000.6
2019-05-19T01:09:32.076Z,1000.6
2019-05-19T01:10:34.164Z,1000.7
2019-05-19T01:11:36.409Z,1000.7
2019-05-19T01:12:38.576Z,1000.7
2019-05-19T01:13:40.723Z,1000.7
2019-05-19T01:14:43.194Z,1000.7
2019-05-19T01:15:45.943Z,1000.6
2019-05-19T01:16:48.893Z,1000.6
2019-05-19T01:17:51.365Z,1000.6
2019-05-19T01:18:54.012Z,1000.6
2019-05-19T01:19:56.664Z,1000.5
2019-05-19T01:20:59.461Z,1000.5
2019-05-19T01:22:01.659Z,1000.5
2019-05-19T01:23:03.767Z,1000.4
2019-05-19T01:24:07.914Z,1000.4
2019-05-19T01:25:20.588Z,1000.4
2019-05-19T01:26:32.701Z,1000.4
2019-05-19T01:27:44.059Z,1000.4
2019-05-19T01:28:56.134Z,1000.4
2019-05-19T01:30:07.925Z,1000.4
2019-05-19T01:31:18.884Z,1000.4
2019-05-19T01:32:29.571Z,1000.3
2019-05-19T01:33:40.307Z,1000.3
2019-05-19T01:34:53.656Z,1000.3
2019-05-19T01:36:03.818Z,1000.3
2019-05-19T01:37:14.474Z,1000.2
2019-05-19T01:38:27.146Z,1000.3
2019-05-19T01:39:40.115Z,1000.2
2019-05-19T01:40:56.429Z,1000.2
2019-05-19T01:42:10.177Z,1000.2
2019-05-19T01:43:23.048Z,1000.2
2019-05-19T01:44:33.165Z,1000.2
2019-05-19T01:45:42.329Z,1000.2
2019-05-19T01:46:51.197Z,1000.2
2019-05-19T01:48:01.887Z,1000.2
2019-05-19T01:49:13.371Z,1000.2
2019-05-19T01:50:23.910Z,1000.2
2019-05-19T01:51:34.245Z,1000.2
2019-05-19T01:52:46.252Z,1000.1
2019-05-19T01:53:57.653Z,1000.1
2019-05-19T01:55:11.451Z,1000.2
2019-05-19T01:56:22.464Z,1000.2
2019-05-19T01:57:31.330Z,1000.2
2019-05-19T01:58:40.005Z,1000.2
2019-05-19T01:59:43.895Z,1000.3
2019-05-19T02:00:54.558Z,1000.3
2019-05-19T02:02:05.308Z,1000.3
2019-05-19T02:03:16.329Z,1000.3
2019-05-19T02:04:29.877Z,1000.4
2019-05-19T02:05:39.641Z,1000.4
2019-05-19T02:06:50.303Z,1000.3
2019-05-19T02:08:00.083Z,1000.3
2019-05-19T02:09:12.548Z,1000.3
2019-05-19T02:10:24.331Z,1000.3
2019-05-19T02:11:36.808Z,1000.3
2019-05-19T02:12:44.070Z,1000.3
2019-05-19T02:13:48.981Z,1000.3
2019-05-19T02:14:55.421Z,1000.3
2019-05-19T02:16:03.366Z,1000.3
2019-05-19T02:17:08.873Z,1000.3
2019-05-19T02:18:18.014Z,1000.3
2019-05-19T02:19:24.130Z,1000.3
2019-05-19T02:20:35.356Z,1000.3
2019-05-19T02:21:43.493Z,1000.3
2019-05-19T02:22:52.804Z,1000.3
2019-05-19T02:24:03.364Z,1000.3
2019-05-19T02:25:15.451Z,1000.3
2019-05-19T02:26:23.491Z,1000.3
2019-05-19T02:27:31.207Z,1000.3
2019-05-19T02:28:39.016Z,1000.3
2019-05-19T02:29:45.360Z,1000.3
2019-05-19T02:30:48.795Z,1000.3
2019-05-19T02:31:51.937Z,1000.4
2019-05-19T02:32:54.253Z,1000.3
2019-05-19T02:33:57.288Z,1000.3
2019-05-19T02:34:59.781Z,1000.4
2019-05-19T02:36:02.353Z,1000.4
2019-05-19T02:37:05.317Z,1000.4
2019-05-19T02:38:07.530Z,1000.3
2019-05-19T02:39:09.862Z,1000.3
2019-05-19T02:40:12.338Z,1000.3
2019-05-19T02:41:14.833Z,1000.3
2019-05-19T02:42:17.427Z,1000.4
2019-05-19T02:43:19.639Z,1000.4
2019-05-19T02:44:21.904Z,1000.4
2019-05-19T02:45:24.083Z,1000.4
2019-05-19T02:46:26.661Z,1000.5
2019-05-19T02:47:29.086Z,1000.5
2019-05-19T02:48:31.296Z,1000.5
2019-05-19T02:49:33.832Z,1000.5
2019-05-19T02:50:52.936Z,1000.5
2019-05-19T02:51:55.584Z,1000.5
2019-05-19T02:52:58.186Z,1000.5
2019-05-19T02:54:00.414Z,1000.5
2019-05-19T02:55:02.902Z,1000.5
2019-05-19T02:56:05.623Z,1000.5
2019-05-19T02:57:08.102Z,1000.5
2019-05-19T02:58:10.321Z,1000.5
2019-05-19T02:59:13.223Z,1000.5
2019-05-19T03:00:15.738Z,1000.5
2019-05-19T03:01:18.354Z,1000.5
2019-05-19T03:02:20.951Z,1000.5
2019-05-19T03:03:23.418Z,1000.5
2019-05-19T03:04:25.750Z,1000.5
2019-05-19T03:05:28.929Z,1000.5
2019-05-19T03:06:31.109Z,1000.5
2019-05-19T03:07:33.676Z,1000.5
2019-05-19T03:08:36.267Z,1000.6
2019-05-19T03:09:38.695Z,1000.5
2019-05-19T03:10:41.302Z,1000.5
2019-05-19T03:11:43.575Z,1000.5
2019-05-19T03:12:46.054Z,1000.5
2019-05-19T03:13:48.293Z,1000.6
2019-05-19T03:14:50.894Z,1000.5
2019-05-19T03:15:53.457Z,1000.6
2019-05-19T03:16:55.974Z,1000.6
2019-05-19T03:17:58.866Z,1000.6
2019-05-19T03:19:01.660Z,1000.6
2019-05-19T03:20:04.816Z,1000.6
2019-05-19T03:21:12.160Z,1000.6
2019-05-19T03:22:14.790Z,1000.5
2019-05-19T03:23:16.973Z,1000.5
2019-05-19T03:24:19.238Z,1000.6
2019-05-19T03:25:21.702Z,1000.6
2019-05-19T03:26:23.927Z,1000.6
2019-05-19T03:27:26.113Z,1000.5
2019-05-19T03:28:28.316Z,1000.6
2019-05-19T03:29:30.599Z,1000.5
2019-05-19T03:30:32.792Z,1000.6
2019-05-19T03:31:35.254Z,1000.6
2019-05-19T03:32:38.095Z,1000.6
2019-05-19T03:33:40.795Z,1000.6
2019-05-19T03:34:43.067Z,1000.6
2019-05-19T03:35:45.363Z,1000.6
2019-05-19T03:36:47.606Z,1000.6
2019-05-19T03:37:49.738Z,1000.6
2019-05-19T03:38:52.293Z,1000.6
2019-05-19T03:39:54.555Z,1000.6
2019-05-19T03:40:57.081Z,1000.6
2019-05-19T03:41:59.745Z,1000.6
2019-05-19T03:43:02.536Z,1000.6
2019-05-19T03:44:04.839Z,1000.5
2019-05-19T03:45:07.035Z,1000.6
2019-05-19T03:46:09.225Z,1000.6
2019-05-19T03:47:12.797Z,1000.6
2019-05-19T03:48:15.314Z,1000.6
2019-05-19T03:49:17.855Z,1000.6
2019-05-19T03:50:20.623Z,1000.6
2019-05-19T03:51:32.122Z,1000.6
2019-05-19T03:52:34.594Z,1000.6
2019-05-19T03:53:36.780Z,1000.6
2019-05-19T03:54:38.919Z,1000.6
2019-05-19T03:55:41.498Z,1000.6
2019-05-19T03:56:44.511Z,1000.6
2019-05-19T03:57:47.001Z,1000.6
2019-05-19T03:58:49.537Z,1000.6
2019-05-19T03:59:51.705Z,1000.6
2019-05-19T04:00:53.922Z,1000.7
2019-05-19T04:01:56.171Z,1000.6
2019-05-19T04:02:58.661Z,1000.7
2019-05-19T04:04:01.152Z,1000.6
2019-05-19T04:05:04.141Z,1000.7
2019-05-19T04:06:06.787Z,1000.7
2019-05-19T04:07:09.187Z,1000.6
2019-05-19T04:08:11.668Z,1000.6
2019-05-19T04:09:17.725Z,1000.6
2019-05-19T04:10:19.971Z,1000.6
2019-05-19T04:11:22.148Z,1000.6
2019-05-19T04:12:25.021Z,1000.6
2019-05-19T04:13:27.895Z,1000.6
2019-05-19T04:14:30.481Z,1000.6
2019-05-19T04:15:33.363Z,1000.6
2019-05-19T04:16:36.194Z,1000.6
2019-05-19T04:17:38.895Z,1000.6
2019-05-19T04:18:41.854Z,1000.6
2019-05-19T04:19:44.050Z,1000.6
2019-05-19T04:20:46.227Z,1000.6
2019-05-19T04:21:50.056Z,1000.6
2019-05-19T04:22:52.906Z,1000.7
2019-05-19T04:23:55.136Z,1000.7
2019-05-19T04:24:57.355Z,1000.7
2019-05-19T04:25:59.857Z,1000.8
2019-05-19T04:27:02.337Z,1000.8
2019-05-19T04:28:04.950Z,1000.8
2019-05-19T04:29:07.205Z,1000.8
2019-05-19T04:30:09.811Z,1000.8
2019-05-19T04:31:12.407Z,1000.8
2019-05-19T04:32:14.879Z,1000.8
2019-05-19T04:33:17.667Z,1000.8
2019-05-19T04:34:19.904Z,1000.8
2019-05-19T04:35:22.317Z,1000.7
2019-05-19T04:36:24.887Z,1000.8
2019-05-19T04:37:27.344Z,1000.8
2019-05-19T04:38:30.449Z,1000.8
2019-05-19T04:39:33.015Z,1000.8
2019-05-19T04:40:35.214Z,1000.8
2019-05-19T04:41:40.594Z,1000.8
2019-05-19T04:42:43.784Z,1000.8
2019-05-19T04:43:46.479Z,1000.8
2019-05-19T04:44:48.683Z,1000.8
2019-05-19T04:45:50.873Z,1000.8
2019-05-19T04:46:53.451Z,1000.8
2019-05-19T04:47:56.198Z,1000.8
2019-05-19T04:48:59.098Z,1000.8
2019-05-19T04:50:02.371Z,1000.8
2019-05-19T04:51:04.907Z,1000.8
2019-05-19T04:52:07.964Z,1000.8
2019-05-19T04:53:10.527Z,1000.7
2019-05-19T04:54:12.794Z,1000.8
2019-05-19T04:55:14.968Z,1000.8
2019-05-19T04:56:20.256Z,1000.8
2019-05-19T04:57:22.431Z,1000.8
2019-05-19T04:58:24.654Z,1000.7
2019-05-19T04:59:26.857Z,1000.7
2019-05-19T05:00:29.611Z,1000.8
2019-05-19T05:01:31.756Z,1000.8
2019-05-19T05:02:34.268Z,1000.8
2019-05-19T05:03:36.944Z,1000.8
2019-05-19T05:04:39.738Z,1000.8
2019-05-19T05:05:42.295Z,1000.8
2019-05-19T05:06:45.445Z,1000.8
2019-05-19T05:07:47.628Z,1000.7
2019-05-19T05:08:50.172Z,1000.7
2019-05-19T05:09:52.381Z,1000.7
2019-05-19T05:10:54.635Z,1000.7
2019-05-19T05:11:56.802Z,1000.7
2019-05-19T05:12:59.375Z,1000.7
2019-05-19T05:14:02.177Z,1000.7
2019-05-19T05:15:04.358Z,1000.8
2019-05-19T05:16:06.658Z,1000.8
2019-05-19T05:17:09.107Z,1000.8
2019-05-19T05:18:11.737Z,1000.8
2019-05-19T05:19:13.932Z,1000.8
2019-05-19T05:20:16.496Z,1000.8
2019-05-19T05:21:18.970Z,1000.7
2019-05-19T05:22:22.748Z,1000.7
2019-05-19T05:23:25.010Z,1000.7
2019-05-19T05:24:29.265Z,1000.8
2019-05-19T05:25:31.498Z,1000.7
2019-05-19T05:26:34.076Z,1000.7
2019-05-19T05:27:36.557Z,1000.7
2019-05-19T05:28:38.726Z,1000.7
2019-05-19T05:29:40.928Z,1000.8
2019-05-19T05:30:43.183Z,1000.7
2019-05-19T05:31:45.349Z,1000.7
2019-05-19T05:32:47.586Z,1000.7
2019-05-19T05:33:49.720Z,1000.7
2019-05-19T05:34:52.561Z,1000.7
2019-05-19T05:35:54.795Z,1000.7
2019-05-19T05:36:57.000Z,1000.7
2019-05-19T05:37:59.508Z,1000.7
2019-05-19T05:39:01.678Z,1000.7
2019-05-19T05:40:04.457Z,1000.7
2019-05-19T05:41:07.686Z,1000.7
2019-05-19T05:42:09.880Z,1000.7
2019-05-19T05:43:12.128Z,1000.7
2019-05-19T05:44:14.707Z,1000.6
2019-05-19T05:45:16.939Z,1000.7
2019-05-19T05:46:19.124Z,1000.8
2019-05-19T05:47:21.585Z,1000.7
2019-05-19T05:48:24.507Z,1000.7
2019-05-19T05:49:26.718Z,1000.8
2019-05-19T05:50:29.668Z,1000.7
2019-05-19T05:51:32.403Z,1000.7
2019-05-19T05:52:39.286Z,1000.7
2019-05-19T05:53:41.807Z,1000.7
2019-05-19T05:54:44.024Z,1000.7
2019-05-19T05:55:46.677Z,1000.7
2019-05-19T05:56:48.846Z,1000.7
2019-05-19T05:57:51.566Z,1000.7
2019-05-19T05:58:53.761Z,1000.7
2019-05-19T05:59:55.938Z,1000.7
2019-05-19T06:00:58.134Z,1000.7
2019-05-19T06:02:00.632Z,1000.7
2019-05-19T06:03:03.501Z,1000.7
2019-05-19T06:04:05.705Z,1000.7
2019-05-19T06:05:07.948Z,1000.7
2019-05-19T06:06:10.542Z,1000.7
2019-05-19T06:07:13.402Z,1000.7
2019-05-19T06:08:15.963Z,1000.7
2019-05-19T06:09:18.418Z,1000.7
2019-05-19T06:10:20.664Z,1000.7
2019-05-19T06:11:22.833Z,1000.7
2019-05-19T06:12:25.352Z,1000.7
2019-05-19T06:13:27.541Z,1000.7
2019-05-19T06:14:30.370Z,1000.7
2019-05-19T06:15:32.626Z,1000.7
2019-05-19T06:16:34.831Z,1000.7
2019-05-19T06:17:37.364Z,1000.7
2019-05-19T06:18:40.327Z,1000.7
2019-05-19T06:19:42.525Z,1000.7
2019-05-19T06:20:44.705Z,1000.6
2019-05-19T06:21:47.545Z,1000.6
2019-05-19T06:22:57.367Z,1000.6
2019-05-19T06:24:00.860Z,1000.7
2019-05-19T06:25:03.415Z,1000.7
2019-05-19T06:26:07.184Z,1000.6
2019-05-19T06:27:09.369Z,1000.6
2019-05-19T06:28:11.535Z,1000.7
2019-05-19T06:29:13.745Z,1000.7
2019-05-19T06:30:15.974Z,1000.6
2019-05-19T06:31:18.567Z,1000.6
2019-05-19T06:32:21.548Z,1000.6
2019-05-19T06:33:24.114Z,1000.7
2019-05-19T06:34:26.288Z,1000.6
2019-05-19T06:35:28.965Z,1000.7
2019-05-19T06:36:31.145Z,1000.7
2019-05-19T06:37:33.320Z,1000.6
2019-05-19T06:38:36.144Z,1000.7
2019-05-19T06:39:39.723Z,1000.7
2019-05-19T06:40:42.287Z,1000.6
2019-05-19T06:41:44.503Z,1000.7
2019-05-19T06:42:47.136Z,1000.7
2019-05-19T06:43:49.737Z,1000.7
2019-05-19T06:44:52.298Z,1000.7
2019-05-19T06:45:54.479Z,1000.7
2019-05-19T06:46:56.680Z,1000.7
2019-05-19T06:47:59.125Z,1000.7
2019-05-19T06:49:01.606Z,1000.7
2019-05-19T06:50:03.865Z,1000.7
2019-05-19T06:51:06.344Z,1000.7
2019-05-19T06:52:09.192Z,1000.7
2019-05-19T06:53:15.113Z,1000.7
2019-05-19T06:54:17.951Z,1000.6
2019-05-19T06:55:20.600Z,1000.7
2019-05-19T06:56:23.595Z,1000.6
2019-05-19T06:57:25.837Z,1000.7
2019-05-19T06:58:28.015Z,1000.7
2019-05-19T06:59:30.283Z,1000.7
2019-05-19T07:00:32.756Z,1000.7
2019-05-19T07:01:35.624Z,1000.7
2019-05-19T07:02:37.884Z,1000.7
2019-05-19T07:03:40.062Z,1000.7
2019-05-19T07:04:42.701Z,1000.8
2019-05-19T07:05:45.294Z,1000.7
2019-05-19T07:06:47.546Z,1000.7
2019-05-19T07:07:50.446Z,1000.7
2019-05-19T07:08:52.937Z,1000.8
2019-05-19T07:09:59.092Z,1000.7
2019-05-19T07:11:01.301Z,1000.7
2019-05-19T07:12:03.957Z,1000.7
2019-05-19T07:13:06.408Z,1000.7
2019-05-19T07:14:08.600Z,1000.7
2019-05-19T07:15:10.838Z,1000.7
2019-05-19T07:16:13.045Z,1000.7
2019-05-19T07:17:15.366Z,1000.7
2019-05-19T07:18:17.559Z,1000.8
2019-05-19T07:19:19.749Z,1000.8
2019-05-19T07:20:21.939Z,1000.7
2019-05-19T07:21:24.148Z,1000.7
2019-05-19T07:22:26.411Z,1000.7
2019-05-19T07:23:29.601Z,1000.7
2019-05-19T07:24:39.354Z,1000.7
2019-05-19T07:25:41.853Z,1000.6
2019-05-19T07:26:44.028Z,1000.7
2019-05-19T07:27:46.536Z,1000.7
2019-05-19T07:28:49.548Z,1000.7
2019-05-19T07:29:51.728Z,1000.7
2019-05-19T07:30:53.927Z,1000.7
2019-05-19T07:31:57.307Z,1000.7
2019-05-19T07:32:59.487Z,1000.7
2019-05-19T07:34:02.167Z,1000.7
2019-05-19T07:35:05.192Z,1000.7
2019-05-19T07:36:07.798Z,1000.7
2019-05-19T07:37:10.080Z,1000.8
2019-05-19T07:38:12.545Z,1000.8
2019-05-19T07:39:15.030Z,1000.7
2019-05-19T07:40:17.211Z,1000.8
2019-05-19T07:41:19.982Z,1000.8
2019-05-19T07:42:22.222Z,1000.8
2019-05-19T07:43:25.086Z,1000.8
2019-05-19T07:44:27.967Z,1000.8
2019-05-19T07:45:30.135Z,1000.8
2019-05-19T07:46:32.351Z,1000.8
2019-05-19T07:47:34.878Z,1000.8
2019-05-19T07:48:37.593Z,1000.8
2019-05-19T07:49:40.116Z,1000.8
2019-05-19T07:50:42.731Z,1000.8
2019-05-19T07:51:45.363Z,1000.8
2019-05-19T07:52:48.240Z,1000.8
2019-05-19T07:53:51.310Z,1000.8
2019-05-19T07:54:54.136Z,1000.8
2019-05-19T07:55:56.311Z,1000.8
2019-05-19T07:56:58.903Z,1000.8
2019-05-19T07:58:02.015Z,1000.8
2019-05-19T07:59:08.226Z,1000.8
2019-05-19T08:00:10.979Z,1000.8
2019-05-19T08:01:13.503Z,1000.7
2019-05-19T08:02:15.761Z,1000.8
2019-05-19T08:03:19.235Z,1000.8
2019-05-19T08:04:22.093Z,1000.8
2019-05-19T08:05:24.288Z,1000.8
2019-05-19T08:06:26.469Z,1000.7
2019-05-19T08:07:28.677Z,1000.8
2019-05-19T08:08:31.363Z,1000.7
2019-05-19T08:09:34.268Z,1000.7
2019-05-19T08:10:36.561Z,1000.7
2019-05-19T08:11:38.806Z,1000.7
2019-05-19T08:12:41.262Z,1000.7
2019-05-19T08:13:44.123Z,1000.7
2019-05-19T08:14:46.768Z,1000.7
2019-05-19T08:15:48.979Z,1000.7
2019-05-19T08:16:51.653Z,1000.7
2019-05-19T08:17:54.173Z,1000.7
2019-05-19T08:18:56.768Z,1000.6
2019-05-19T08:19:59.276Z,1000.6
2019-05-19T08:21:01.466Z,1000.7
2019-05-19T08:22:03.733Z,1000.6
2019-05-19T08:23:06.612Z,1000.6
2019-05-19T08:24:08.881Z,1000.6
2019-05-19T08:25:11.063Z,1000.6
2019-05-19T08:26:13.260Z,1000.6
2019-05-19T08:27:15.821Z,1000.6
2019-05-19T08:28:17.993Z,1000.6
2019-05-19T08:29:20.649Z,1000.7
2019-05-19T08:30:22.808Z,1000.7
2019-05-19T08:31:25.358Z,1000.6
2019-05-19T08:32:29.007Z,1000.6
2019-05-19T08:33:31.239Z,1000.6
2019-05-19T08:34:34.518Z,1000.7
2019-05-19T08:35:36.725Z,1000.6
2019-05-19T08:36:39.251Z,1000.7
2019-05-19T08:37:41.766Z,1000.6
2019-05-19T08:38:44.054Z,1000.6
2019-05-19T08:39:46.596Z,1000.6
2019-05-19T08:40:48.861Z,1000.6
2019-05-19T08:41:52.912Z,1000.6
2019-05-19T08:42:55.102Z,1000.6
2019-05-19T08:43:57.510Z,1000.6
2019-05-19T08:45:00.026Z,1000.6
2019-05-19T08:46:02.718Z,1000.6
2019-05-19T08:47:04.914Z,1000.6
2019-05-19T08:48:07.177Z,1000.6
2019-05-19T08:49:09.370Z,1000.5
2019-05-19T08:50:11.856Z,1000.6
2019-05-19T08:51:14.466Z,1000.5
2019-05-19T08:52:16.695Z,1000.6
2019-05-19T08:53:18.917Z,1000.6
2019-05-19T08:54:21.197Z,1000.5
2019-05-19T08:55:23.400Z,1000.6
2019-05-19T08:56:26.037Z,1000.5
2019-05-19T08:57:28.518Z,1000.5
2019-05-19T08:58:31.083Z,1000.5
2019-05-19T08:59:33.572Z,1000.5
2019-05-19T09:00:38.852Z,1000.5
2019-05-19T09:01:41.474Z,1000.5
2019-05-19T09:02:43.979Z,1000.6
2019-05-19T09:03:46.976Z,1000.5
2019-05-19T09:04:49.199Z,1000.5
2019-05-19T09:05:52.050Z,1000.5
2019-05-19T09:06:54.651Z,1000.5
2019-05-19T09:07:57.240Z,1000.5
2019-05-19T09:08:59.505Z,1000.5
2019-05-19T09:10:02.690Z,1000.5
2019-05-19T09:11:04.945Z,1000.5
2019-05-19T09:12:07.173Z,1000.5
2019-05-19T09:13:09.360Z,1000.5
2019-05-19T09:14:12.011Z,1000.5
2019-05-19T09:15:14.208Z,1000.5
2019-05-19T09:16:16.450Z,1000.5
2019-05-19T09:17:19.341Z,1000.5
2019-05-19T09:18:21.599Z,1000.5
2019-05-19T09:19:23.818Z,1000.4
2019-05-19T09:20:26.307Z,1000.4
2019-05-19T09:21:28.837Z,1000.4
2019-05-19T09:22:32.727Z,1000.5
2019-05-19T09:23:34.993Z,1000.4
2019-05-19T09:24:38.025Z,1000.3
2019-05-19T09:25:40.569Z,1000.4
2019-05-19T09:26:42.805Z,1000.4
2019-05-19T09:27:45.373Z,1000.3
2019-05-19T09:28:47.722Z,1000.3
2019-05-19T09:29:50.311Z,1000.3
2019-05-19T09:30:52.588Z,1000.3
2019-05-19T09:31:55.076Z,1000.3
2019-05-19T09:32:57.287Z,1000.3
2019-05-19T09:33:59.960Z,1000.2
2019-05-19T09:35:02.791Z,1000.2
2019-05-19T09:36:05.466Z,1000.2
2019-05-19T09:37:07.706Z,1000.2
2019-05-19T09:38:10.554Z,1000.2
2019-05-19T09:39:13.351Z,1000.3
2019-05-19T09:40:16.254Z,1000.2
2019-05-19T09:41:19.602Z,1000.2
2019-05-19T09:42:21.879Z,1000.2
2019-05-19T09:43:24.189Z,1000.2
2019-05-19T09:44:26.820Z,1000.2
2019-05-19T09:45:29.041Z,1000.2
2019-05-19T09:46:31.491Z,1000.2
2019-05-19T09:47:34.172Z,1000.2
2019-05-19T09:48:36.684Z,1000.2
2019-05-19T09:49:39.316Z,1000.1
2019-05-19T09:50:42.503Z,1000.1
2019-05-19T09:51:44.726Z,1000.1
2019-05-19T09:52:46.964Z,1000.1
2019-05-19T09:53:49.526Z,1000.1
2019-05-19T09:54:52.309Z,1000
2019-05-19T09:55:54.601Z,1000
2019-05-19T09:56:56.809Z,1000
2019-05-19T09:57:59.306Z,1000
2019-05-19T09:59:01.549Z,1000
2019-05-19T10:00:03.791Z,1000
2019-05-19T10:01:06.065Z,1000
2019-05-19T10:02:08.560Z,1000
2019-05-19T10:03:11.508Z,1000
2019-05-19T10:04:13.735Z,1000
2019-05-19T10:05:15.946Z,1000
2019-05-19T10:06:18.910Z,1000
2019-05-19T10:07:21.434Z,1000
2019-05-19T10:08:23.769Z,1000
2019-05-19T10:09:26.031Z,1000
2019-05-19T10:10:28.559Z,999.9
2019-05-19T10:11:31.441Z,1000
2019-05-19T10:12:34.044Z,999.9
2019-05-19T10:13:38.145Z,999.9
2019-05-19T10:14:40.844Z,999.9
2019-05-19T10:15:43.362Z,999.9
2019-05-19T10:16:46.029Z,999.9
2019-05-19T10:17:48.822Z,999.9
2019-05-19T10:18:51.312Z,999.8
2019-05-19T10:19:53.519Z,999.9
2019-05-19T10:20:55.796Z,999.9
2019-05-19T10:21:58.026Z,999.8
2019-05-19T10:23:00.229Z,999.8
2019-05-19T10:24:03.141Z,999.8
2019-05-19T10:25:23.016Z,999.9
2019-05-19T10:26:26.024Z,999.9
2019-05-19T10:27:28.606Z,999.9
2019-05-19T10:28:31.278Z,999.9
2019-05-19T10:29:33.440Z,999.9
2019-05-19T10:30:35.923Z,999.9
2019-05-19T10:31:38.298Z,999.9
2019-05-19T10:32:40.738Z,999.9
2019-05-19T10:33:43.023Z,999.8
2019-05-19T10:34:45.233Z,999.9
2019-05-19T10:35:47.888Z,999.8
2019-05-19T10:36:50.140Z,999.8
2019-05-19T10:37:52.312Z,999.8
2019-05-19T10:38:55.039Z,999.8
2019-05-19T10:39:57.295Z,999.8
2019-05-19T10:40:59.562Z,999.7
2019-05-19T10:42:03.094Z,999.7
2019-05-19T10:43:05.971Z,999.7
2019-05-19T10:44:08.166Z,999.7
2019-05-19T10:45:10.358Z,999.7
2019-05-19T10:46:12.581Z,999.7
2019-05-19T10:47:14.777Z,999.7
2019-05-19T10:48:17.471Z,999.7
2019-05-19T10:49:19.689Z,999.6
2019-05-19T10:50:21.892Z,999.6
2019-05-19T10:51:24.136Z,999.6
2019-05-19T10:52:27.009Z,999.6
2019-05-19T10:53:29.267Z,999.6
2019-05-19T10:54:31.709Z,999.6
2019-05-19T10:55:37.185Z,999.6
2019-05-19T10:56:39.697Z,999.6
2019-05-19T10:57:41.918Z,999.6
2019-05-19T10:58:45.206Z,999.6
2019-05-19T10:59:47.401Z,999.6
2019-05-19T11:00:50.068Z,999.6
2019-05-19T11:01:52.308Z,999.7
2019-05-19T11:02:54.505Z,999.7
2019-05-19T11:03:56.812Z,999.6
2019-05-19T11:04:59.632Z,999.7
2019-05-19T11:06:02.584Z,999.7
2019-05-19T11:07:05.421Z,999.7
2019-05-19T11:08:07.683Z,999.6
2019-05-19T11:09:10.174Z,999.6
2019-05-19T11:10:12.378Z,999.6
2019-05-19T11:11:14.883Z,999.6
2019-05-19T11:12:17.356Z,999.6
2019-05-19T11:13:20.021Z,999.6
2019-05-19T11:14:22.329Z,999.6
2019-05-19T11:15:24.570Z,999.6
2019-05-19T11:16:26.786Z,999.6
2019-05-19T11:17:28.995Z,999.6
2019-05-19T11:18:31.261Z,999.6
2019-05-19T11:19:33.451Z,999.6
2019-05-19T11:20:36.040Z,999.6
2019-05-19T11:21:38.261Z,999.6
2019-05-19T11:22:40.811Z,999.7
2019-05-19T11:23:43.313Z,999.7
2019-05-19T11:24:45.514Z,999.7
2019-05-19T11:25:51.967Z,999.6
2019-05-19T11:26:54.934Z,999.6
2019-05-19T11:27:57.190Z,999.6
2019-05-19T11:28:59.387Z,999.5
2019-05-19T11:30:01.601Z,999.5
2019-05-19T11:31:04.089Z,999.5
2019-05-19T11:32:06.305Z,999.5
2019-05-19T11:33:08.650Z,999.5
2019-05-19T11:34:11.180Z,999.5
2019-05-19T11:35:13.451Z,999.5
2019-05-19T11:36:15.687Z,999.5
2019-05-19T11:37:17.906Z,999.6
2019-05-19T11:38:20.549Z,999.5
2019-05-19T11:39:23.273Z,999.5
2019-05-19T11:40:25.519Z,999.5
2019-05-19T11:41:27.739Z,999.5
2019-05-19T11:42:30.352Z,999.5
2019-05-19T11:43:32.640Z,999.5
2019-05-19T11:44:34.842Z,999.5
2019-05-19T11:45:37.111Z,999.5
2019-05-19T11:46:39.323Z,999.5
2019-05-19T11:47:42.002Z,999.5
2019-05-19T11:48:44.237Z,999.5
2019-05-19T11:49:46.454Z,999.5
2019-05-19T11:50:48.654Z,999.5
2019-05-19T11:51:50.871Z,999.5
2019-05-19T11:52:53.136Z,999.5
2019-05-19T11:53:55.350Z,999.5
2019-05-19T11:54:57.604Z,999.4
2019-05-19T11:56:11.091Z,999.4
2019-05-19T11:57:13.775Z,999.4
2019-05-19T11:58:15.957Z,999.4
2019-05-19T11:59:18.174Z,999.3
2019-05-19T12:00:20.912Z,999.4
2019-05-19T12:01:23.908Z,999.4
2019-05-19T12:02:26.179Z,999.4
2019-05-19T12:03:28.682Z,999.5
2019-05-19T12:04:30.866Z,999.5
2019-05-19T12:05:33.248Z,999.4
2019-05-19T12:06:40.264Z,999.4
2019-05-19T12:07:42.534Z,999.4
2019-05-19T12:08:45.010Z,999.4
2019-05-19T12:09:47.691Z,999.4
2019-05-19T12:10:49.908Z,999.4
2019-05-19T12:11:52.774Z,999.4
2019-05-19T12:12:55.059Z,999.4
2019-05-19T12:13:57.258Z,999.4
2019-05-19T12:15:00.574Z,999.4
2019-05-19T12:16:03.097Z,999.4
2019-05-19T12:17:06.270Z,999.4
2019-05-19T12:18:10.889Z,999.5
2019-05-19T12:19:13.092Z,999.4
2019-05-19T12:20:15.684Z,999.4
2019-05-19T12:21:17.886Z,999.4
2019-05-19T12:22:20.200Z,999.4
2019-05-19T12:23:22.409Z,999.3
2019-05-19T12:24:24.620Z,999.3
2019-05-19T12:25:26.888Z,999.3
2019-05-19T12:26:29.105Z,999.3
2019-05-19T12:27:31.945Z,999.3
2019-05-19T12:28:34.167Z,999.3
2019-05-19T12:29:36.438Z,999.3
2019-05-19T12:30:38.618Z,999.2
2019-05-19T12:31:41.231Z,999.2
2019-05-19T12:32:43.895Z,999.2
2019-05-19T12:33:52.563Z,999.2
2019-05-19T12:34:54.853Z,999.3
2019-05-19T12:35:57.072Z,999.2
2019-05-19T12:36:59.330Z,999.3
2019-05-19T12:38:01.556Z,999.2
2019-05-19T12:39:03.787Z,999.2
2019-05-19T12:40:06.710Z,999.2
2019-05-19T12:41:08.931Z,999.2
2019-05-19T12:42:11.797Z,999.3
2019-05-19T12:43:13.999Z,999.3
2019-05-19T12:44:16.259Z,999.3
2019-05-19T12:45:19.171Z,999.3
2019-05-19T12:46:21.358Z,999.3
2019-05-19T12:47:24.048Z,999.3
2019-05-19T12:48:26.262Z,999.3
2019-05-19T12:49:28.992Z,999.2
2019-05-19T12:50:31.185Z,999.2
2019-05-19T12:51:33.408Z,999.2
2019-05-19T12:52:35.682Z,999.2
2019-05-19T12:53:38.454Z,999.2
2019-05-19T12:54:41.356Z,999.2
2019-05-19T12:55:45.249Z,999.2
2019-05-19T12:56:47.519Z,999.2
2019-05-19T12:57:49.729Z,999.1
2019-05-19T12:58:51.951Z,999.1
2019-05-19T12:59:54.620Z,999.1
2019-05-19T13:00:56.881Z,999.1
2019-05-19T13:01:59.196Z,999.1
2019-05-19T13:03:02.093Z,999.1
2019-05-19T13:04:05.191Z,999.1
2019-05-19T13:05:07.438Z,999
2019-05-19T13:06:09.659Z,999
2019-05-19T13:07:11.872Z,999
2019-05-19T13:08:14.090Z,999.1
2019-05-19T13:09:16.690Z,999.1
2019-05-19T13:10:18.908Z,999.1
2019-05-19T13:11:21.442Z,999
2019-05-19T13:12:24.028Z,999.1
2019-05-19T13:13:26.514Z,999
2019-05-19T13:14:28.795Z,999
2019-05-19T13:15:31.317Z,999
2019-05-19T13:16:33.519Z,999